createdAt,value
2018-07-14T00:00:59.399Z,83.61
2018-07-14T00:03:29.105Z,83.57
2018-07-14T00:05:57.942Z,83.70
2018-07-14T00:08:26.599Z,83.96
2018-07-14T00:10:56.034Z,84.08
2018-07-14T00:13:24.908Z,84.41
2018-07-14T00:15:53.825Z,84.39
2018-07-14T00:18:22.543Z,84.76
2018-07-14T00:20:52.050Z,84.74
2018-07-14T00:23:21.228Z,84.90
2018-07-14T00:25:55.324Z,85.06
2018-07-14T00:28:25.290Z,84.66
2018-07-14T00:30:54.008Z,84.97
2018-07-14T00:33:23.209Z,84.68
2018-07-14T00:35:51.950Z,84.75
2018-07-14T00:38:20.765Z,85.07
2018-07-14T00:40:49.670Z,85.15
2018-07-14T00:43:19.065Z,85.10
2018-07-14T00:45:47.834Z,85.54
2018-07-14T00:48:16.505Z,85.63
2018-07-14T00:50:45.215Z,86.18
2018-07-14T00:53:13.874Z,86.44
2018-07-14T00:55:43.159Z,86.63
2018-07-14T00:58:12.203Z,86.69
2018-07-14T01:00:40.844Z,86.74
2018-07-14T01:03:10.879Z,86.89
2018-07-14T01:05:39.932Z,86.46
2018-07-14T01:08:08.694Z,87.04
2018-07-14T01:10:37.509Z,87.00
2018-07-14T01:13:06.201Z,87.11
2018-07-14T01:15:34.846Z,87.75
2018-07-14T01:18:03.920Z,87.67
2018-07-14T01:20:33.316Z,87.83
2018-07-14T01:23:02.306Z,87.86
2018-07-14T01:25:31.039Z,87.92
2018-07-14T01:27:59.914Z,87.78
2018-07-14T01:30:29.310Z,88.44
2018-07-14T01:32:58.013Z,88.77
2018-07-14T01:35:26.703Z,88.74
2018-07-14T01:37:55.580Z,88.89
2018-07-14T01:40:24.154Z,89.40
2018-07-14T01:42:53.640Z,89.39
2018-07-14T01:45:22.561Z,89.04
2018-07-14T01:47:51.168Z,89.08
2018-07-14T01:50:20.031Z,88.75
2018-07-14T01:52:48.829Z,88.91
2018-07-14T01:55:17.596Z,89.21
2018-07-14T01:57:46.462Z,89.38
2018-07-14T02:00:16.222Z,89.49
2018-07-14T02:02:44.928Z,89.87
2018-07-14T02:05:13.975Z,89.73
2018-07-14T02:07:42.654Z,89.56
2018-07-14T02:10:11.309Z,89.75
2018-07-14T02:12:40.121Z,89.66
2018-07-14T02:22:10.694Z,89.49
2018-07-14T02:24:40.166Z,89.40
2018-07-14T02:27:09.083Z,89.21
2018-07-14T02:29:37.889Z,89.30
2018-07-14T02:32:06.599Z,89.60
2018-07-14T02:34:36.197Z,88.96
2018-07-14T02:37:05.011Z,88.79
2018-07-14T02:39:33.841Z,89.03
2018-07-14T02:42:02.541Z,89.11
2018-07-14T02:44:31.415Z,88.78
2018-07-14T02:47:00.094Z,88.83
2018-07-14T02:49:28.889Z,88.75
2018-07-14T02:51:59.380Z,89.14
2018-07-14T02:54:28.739Z,88.63
2018-07-14T02:56:57.810Z,88.85
2018-07-14T02:59:27.227Z,89.35
2018-07-14T03:01:56.179Z,89.51
2018-07-14T03:04:25.435Z,89.26
2018-07-14T03:06:54.398Z,89.68
2018-07-14T03:09:23.017Z,89.56
2018-07-14T03:11:51.916Z,89.78
2018-07-14T03:14:20.800Z,89.93
2018-07-14T03:16:50.021Z,90.02
2018-07-14T03:19:18.776Z,90.16
2018-07-14T03:21:47.351Z,90.26
2018-07-14T03:24:16.652Z,90.38
2018-07-14T03:26:45.532Z,90.52
2018-07-14T03:29:14.129Z,90.64
2018-07-14T03:31:43.631Z,90.67
2018-07-14T03:34:12.326Z,90.50
2018-07-14T03:36:41.166Z,90.38
2018-07-14T03:39:10.390Z,90.62
2018-07-14T03:41:39.671Z,90.28
2018-07-14T03:44:08.475Z,90.45
2018-07-14T03:46:37.481Z,90.33
2018-07-14T03:49:06.150Z,90.32
2018-07-14T03:51:34.947Z,90.82
2018-07-14T03:54:03.543Z,91.07
2018-07-14T03:56:32.438Z,91.30
2018-07-14T03:59:01.421Z,91.34
2018-07-14T04:01:29.986Z,91.44
2018-07-14T04:03:58.743Z,91.42
2018-07-14T04:06:27.394Z,91.31
2018-07-14T04:08:55.960Z,91.39
2018-07-14T04:11:24.705Z,91.47
2018-07-14T04:13:53.621Z,91.79
2018-07-14T04:16:22.841Z,91.59
2018-07-14T04:18:51.624Z,91.50
2018-07-14T04:21:20.290Z,91.58
2018-07-14T04:23:49.886Z,91.44
2018-07-14T04:26:18.496Z,90.46
2018-07-14T04:28:47.286Z,90.72
2018-07-14T04:31:16.211Z,90.62
2018-07-14T04:33:45.485Z,90.41
2018-07-14T04:36:17.671Z,90.00
2018-07-14T04:38:46.492Z,89.61
2018-07-14T04:41:16.316Z,88.85
2018-07-14T04:43:45.513Z,87.77
2018-07-14T04:46:15.056Z,87.02
2018-07-14T04:48:43.713Z,86.31
2018-07-14T04:51:12.345Z,85.55
2018-07-14T04:53:41.086Z,85.55
2018-07-14T04:56:09.912Z,85.41
2018-07-14T04:58:39.000Z,84.90
2018-07-14T05:01:07.876Z,84.64
2018-07-14T05:03:36.575Z,84.17
2018-07-14T05:06:05.347Z,83.15
2018-07-14T05:08:34.129Z,82.76
2018-07-14T05:11:02.982Z,82.02
2018-07-14T05:13:31.600Z,81.40
2018-07-14T05:16:00.540Z,80.60
2018-07-14T05:18:29.366Z,80.41
2018-07-14T05:20:58.157Z,80.12
2018-07-14T05:23:27.155Z,78.92
2018-07-14T05:25:55.811Z,77.91
2018-07-14T05:28:24.484Z,77.28
2018-07-14T05:30:53.136Z,77.91
2018-07-14T05:33:22.198Z,77.69
2018-07-14T05:35:51.526Z,78.49
2018-07-14T05:38:20.096Z,78.94
2018-07-14T05:40:49.434Z,79.18
2018-07-14T05:43:18.094Z,79.50
2018-07-14T05:45:47.325Z,80.15
2018-07-14T05:48:16.175Z,80.17
2018-07-14T05:50:44.936Z,80.69
2018-07-14T05:53:13.697Z,80.33
2018-07-14T05:55:43.187Z,79.34
2018-07-14T05:58:12.580Z,75.02
2018-07-14T06:00:42.753Z,69.73
2018-07-14T06:03:11.595Z,65.51
2018-07-14T06:05:40.269Z,63.38
2018-07-14T06:08:09.151Z,63.81
2018-07-14T06:10:38.192Z,64.04
2018-07-14T06:13:07.101Z,64.36
2018-07-14T06:15:36.040Z,65.36
2018-07-14T06:18:05.307Z,65.90
2018-07-14T06:20:34.155Z,68.01
2018-07-14T06:23:03.015Z,68.35
2018-07-14T06:25:32.000Z,67.10
2018-07-14T06:28:01.870Z,66.85
2018-07-14T06:30:30.697Z,66.27
2018-07-14T06:32:59.321Z,62.20
2018-07-14T06:35:27.961Z,57.98
2018-07-14T06:37:56.532Z,52.42
2018-07-14T06:40:25.411Z,50.23
2018-07-14T06:42:54.351Z,47.64
2018-07-14T06:45:23.184Z,45.09
2018-07-14T06:47:52.271Z,44.35
2018-07-14T06:50:21.151Z,42.85
2018-07-14T06:52:49.891Z,41.54
2018-07-14T06:55:18.710Z,41.45
2018-07-14T06:57:48.226Z,40.76
2018-07-14T07:00:17.272Z,39.53
2018-07-14T07:02:46.062Z,38.46
2018-07-14T07:05:14.896Z,36.71
2018-07-14T07:07:43.555Z,37.33
2018-07-14T07:10:12.392Z,35.89
2018-07-14T07:12:41.302Z,36.17
2018-07-14T07:15:10.732Z,35.40
2018-07-14T07:17:39.405Z,34.93
2018-07-14T07:20:08.093Z,33.19
2018-07-14T07:22:36.886Z,35.22
2018-07-14T07:25:05.571Z,33.60
2018-07-14T07:27:34.391Z,31.94
2018-07-14T07:30:03.088Z,31.11
2018-07-14T07:32:32.333Z,29.79
2018-07-14T07:35:01.634Z,30.01
2018-07-14T07:37:30.635Z,30.05
2018-07-14T07:39:59.348Z,29.78
2018-07-14T07:42:28.044Z,29.56
2018-07-14T07:44:56.746Z,26.59
2018-07-14T07:47:25.447Z,27.17
2018-07-14T07:49:54.811Z,25.99
2018-07-14T07:52:23.565Z,26.40
2018-07-14T07:54:52.571Z,25.74
2018-07-14T07:57:21.147Z,25.46
2018-07-14T07:59:49.974Z,25.03
2018-07-14T08:02:19.263Z,24.74
2018-07-14T08:04:47.944Z,24.09
2018-07-14T08:07:16.626Z,23.91
2018-07-14T08:09:45.397Z,23.29
2018-07-14T08:12:14.041Z,23.24
2018-07-14T08:14:42.867Z,23.13
2018-07-14T08:17:11.631Z,22.31
2018-07-14T08:19:41.243Z,22.28
2018-07-14T08:22:09.861Z,21.91
2018-07-14T08:24:38.601Z,21.37
2018-07-14T08:27:07.305Z,21.00
2018-07-14T08:29:37.222Z,21.23
2018-07-14T08:32:05.942Z,21.44
2018-07-14T08:34:34.636Z,21.51
2018-07-14T08:37:03.243Z,21.02
2018-07-14T08:39:32.038Z,19.40
2018-07-14T08:42:00.728Z,19.27
2018-07-14T08:44:29.307Z,19.29
2018-07-14T08:46:58.281Z,19.39
2018-07-14T08:49:27.195Z,19.50
2018-07-14T08:51:55.848Z,19.08
2018-07-14T08:54:24.436Z,19.32
2018-07-14T08:56:53.131Z,18.13
2018-07-14T08:59:21.892Z,17.31
2018-07-14T09:01:50.585Z,16.36
2018-07-14T09:04:19.195Z,16.93
2018-07-14T09:06:48.096Z,16.98
2018-07-14T09:09:17.086Z,18.25
2018-07-14T09:11:46.033Z,19.74
2018-07-14T09:14:14.736Z,20.06
2018-07-14T09:16:43.725Z,19.41
2018-07-14T09:19:12.316Z,18.90
2018-07-14T09:21:41.041Z,17.99
2018-07-14T09:24:09.701Z,15.64
2018-07-14T09:26:39.425Z,15.26
2018-07-14T09:29:09.186Z,15.82
2018-07-14T09:31:38.697Z,15.51
2018-07-14T09:34:07.548Z,15.25
2018-07-14T09:36:36.803Z,15.98
2018-07-14T09:39:06.711Z,17.29
2018-07-14T09:41:35.403Z,15.47
2018-07-14T09:44:04.765Z,15.57
2018-07-14T09:46:33.469Z,16.72
2018-07-14T09:49:03.066Z,17.60
2018-07-14T09:51:32.019Z,15.92
2018-07-14T09:54:00.956Z,14.15
2018-07-14T09:56:29.776Z,13.63
2018-07-14T09:58:58.641Z,13.04
2018-07-14T10:01:27.310Z,13.47
2018-07-14T10:03:56.148Z,12.44
2018-07-14T10:06:25.112Z,12.58
2018-07-14T10:08:53.911Z,12.37
2018-07-14T10:11:22.853Z,12.22
2018-07-14T10:13:51.794Z,12.94
2018-07-14T10:16:21.030Z,12.48
2018-07-14T10:18:49.906Z,13.00
2018-07-14T10:21:18.747Z,13.78
2018-07-14T10:23:47.379Z,12.49
2018-07-14T10:26:16.233Z,13.02
2018-07-14T10:28:44.935Z,12.75
2018-07-14T10:31:13.676Z,12.51
2018-07-14T10:33:43.325Z,12.42
2018-07-14T10:36:12.089Z,12.46
2018-07-14T10:38:40.938Z,11.82
2018-07-14T10:41:09.732Z,11.75
2018-07-14T10:43:38.536Z,11.90
2018-07-14T10:46:07.772Z,11.92
2018-07-14T10:48:36.385Z,12.12
2018-07-14T10:51:05.773Z,11.98
2018-07-14T10:53:34.902Z,12.73
2018-07-14T10:56:03.588Z,13.90
2018-07-14T10:58:32.257Z,14.16
2018-07-14T11:01:01.343Z,15.21
2018-07-14T11:03:30.816Z,17.46
2018-07-14T11:05:59.982Z,19.87
2018-07-14T11:08:28.627Z,21.76
2018-07-14T11:10:57.513Z,23.05
2018-07-14T11:13:26.175Z,24.52
2018-07-14T11:15:54.923Z,24.68
2018-07-14T11:18:23.678Z,24.64
2018-07-14T11:20:52.432Z,25.51
2018-07-14T11:23:21.172Z,24.82
2018-07-14T11:25:49.958Z,27.70
2018-07-14T11:28:19.314Z,28.00
2018-07-14T11:30:48.268Z,26.37
2018-07-14T11:33:16.997Z,26.34
2018-07-14T11:35:45.679Z,27.13
2018-07-14T11:38:15.152Z,26.26
2018-07-14T11:40:44.338Z,26.62
2018-07-14T11:43:13.258Z,27.76
2018-07-14T11:45:42.802Z,26.13
2018-07-14T11:48:11.879Z,25.56
2018-07-14T11:50:41.318Z,27.03
2018-07-14T11:53:10.215Z,26.21
2018-07-14T11:55:38.999Z,26.02
2018-07-14T11:58:07.732Z,26.64
2018-07-14T12:00:36.964Z,27.14
2018-07-14T12:03:06.207Z,25.58
2018-07-14T12:05:35.076Z,24.95
2018-07-14T12:08:03.861Z,25.53
2018-07-14T12:10:32.492Z,24.96
2018-07-14T12:13:01.158Z,23.89
2018-07-14T12:15:30.128Z,23.54
2018-07-14T12:17:58.907Z,23.79
2018-07-14T12:20:27.803Z,24.00
2018-07-14T12:22:58.145Z,24.03
2018-07-14T12:25:26.887Z,24.74
2018-07-14T12:27:56.505Z,25.13
2018-07-14T12:30:25.979Z,27.17
2018-07-14T12:32:54.787Z,27.03
2018-07-14T12:35:23.473Z,28.20
2018-07-14T12:37:52.157Z,28.85
2018-07-14T12:40:20.932Z,29.56
2018-07-14T12:42:49.628Z,31.02
2018-07-14T12:45:18.258Z,31.47
2018-07-14T12:47:47.247Z,31.51
2018-07-14T12:50:15.884Z,33.54
2018-07-14T12:52:44.583Z,32.48
2018-07-14T12:55:13.424Z,32.84
2018-07-14T12:57:42.270Z,32.75
2018-07-14T13:00:11.124Z,32.42
2018-07-14T13:02:40.124Z,33.82
2018-07-14T13:05:09.067Z,33.83
2018-07-14T13:07:37.855Z,33.56
2018-07-14T13:10:07.490Z,33.25
2018-07-14T13:12:36.772Z,32.68
2018-07-14T13:15:06.259Z,33.16
2018-07-14T13:17:35.242Z,35.39
2018-07-14T13:20:04.164Z,33.10
2018-07-14T13:22:33.092Z,33.53
2018-07-14T13:25:02.300Z,33.09
2018-07-14T13:27:31.023Z,32.73
2018-07-14T13:30:00.400Z,34.05
2018-07-14T13:32:29.244Z,34.83
2018-07-14T13:34:57.869Z,35.37
2018-07-14T13:37:26.812Z,35.44
2018-07-14T13:39:55.704Z,35.00
2018-07-14T13:42:24.319Z,34.84
2018-07-14T13:44:53.043Z,34.53
2018-07-14T13:47:21.908Z,35.25
2018-07-14T13:49:50.724Z,35.24
2018-07-14T13:52:19.405Z,34.99
2018-07-14T13:54:48.469Z,34.77
2018-07-14T13:57:17.305Z,33.74
2018-07-14T13:59:45.986Z,33.67
2018-07-14T14:02:14.869Z,33.38
2018-07-14T14:04:43.880Z,33.29
2018-07-14T14:07:12.634Z,33.15
2018-07-14T14:09:42.130Z,32.89
2018-07-14T14:12:11.237Z,34.03
2018-07-14T14:14:40.011Z,32.85
2018-07-14T14:17:08.685Z,31.94
2018-07-14T14:19:37.784Z,31.98
2018-07-14T14:22:06.959Z,31.81
2018-07-14T14:24:35.757Z,32.56
2018-07-14T14:27:04.536Z,31.94
2018-07-14T14:29:33.237Z,32.46
2018-07-14T14:32:02.230Z,32.74
2018-07-14T14:34:31.076Z,31.86
2018-07-14T14:37:00.025Z,31.41
2018-07-14T14:39:29.449Z,30.86
2018-07-14T14:41:58.278Z,31.44
2018-07-14T14:44:27.103Z,31.13
2018-07-14T14:46:56.341Z,31.67
2018-07-14T14:49:25.441Z,31.74
2018-07-14T14:51:54.919Z,33.09
2018-07-14T14:54:24.229Z,33.36
2018-07-14T14:56:53.185Z,33.69
2018-07-14T14:59:22.615Z,34.40
2018-07-14T15:01:51.400Z,34.68
2018-07-14T15:04:21.096Z,35.17
2018-07-14T15:06:50.576Z,35.41
2018-07-14T15:09:20.463Z,35.20
2018-07-14T15:11:49.594Z,35.20
2018-07-14T15:14:18.423Z,35.01
2018-07-14T15:16:47.185Z,34.38
2018-07-14T15:19:16.028Z,34.32
2018-07-14T15:21:44.668Z,33.51
2018-07-14T15:24:13.805Z,32.99
2018-07-14T15:26:42.839Z,32.67
2018-07-14T15:29:11.749Z,34.07
2018-07-14T15:31:41.327Z,34.44
2018-07-14T15:34:10.333Z,34.10
2018-07-14T15:36:39.449Z,33.96
2018-07-14T15:39:09.763Z,33.76
2018-07-14T15:41:38.975Z,33.23
2018-07-14T15:44:07.647Z,32.47
2018-07-14T15:46:36.744Z,32.16
2018-07-14T15:49:05.867Z,32.51
2018-07-14T15:51:34.649Z,33.34
2018-07-14T15:54:03.444Z,32.96
2018-07-14T15:56:32.285Z,33.49
2018-07-14T15:59:01.283Z,32.69
2018-07-14T16:01:30.148Z,31.63
2018-07-14T16:03:58.928Z,31.65
2018-07-14T16:06:27.813Z,32.41
2018-07-14T16:08:56.458Z,32.35
2018-07-14T16:11:25.245Z,31.67
2018-07-14T16:13:54.240Z,32.58
2018-07-14T16:16:23.025Z,32.58
2018-07-14T16:18:52.461Z,32.91
2018-07-14T16:21:21.254Z,33.23
2018-07-14T16:23:49.906Z,33.74
2018-07-14T16:26:18.530Z,33.92
2018-07-14T16:28:47.204Z,35.26
2018-07-14T16:31:16.756Z,36.39
2018-07-14T16:33:45.708Z,36.50
2018-07-14T16:36:14.355Z,37.05
2018-07-14T16:38:43.085Z,37.62
2018-07-14T16:41:11.894Z,37.74
2018-07-14T16:43:40.719Z,36.48
2018-07-14T16:46:10.279Z,36.81
2018-07-14T16:48:39.351Z,36.34
2018-07-14T16:51:08.596Z,37.43
2018-07-14T16:53:37.533Z,37.89
2018-07-14T16:56:06.494Z,37.84
2018-07-14T16:58:35.347Z,37.02
2018-07-14T17:01:04.149Z,37.27
2018-07-14T17:03:32.833Z,37.97
2018-07-14T17:06:01.667Z,37.90
2018-07-14T17:08:30.316Z,38.94
2018-07-14T17:10:59.149Z,38.42
2018-07-14T17:13:27.958Z,39.17
2018-07-14T17:15:56.884Z,38.59
2018-07-14T17:18:26.279Z,39.61
2018-07-14T17:20:55.571Z,39.74
2018-07-14T17:23:24.337Z,40.10
2018-07-14T17:25:53.057Z,40.46
2018-07-14T17:28:21.696Z,40.82
2018-07-14T17:30:50.541Z,41.61
2018-07-14T17:33:19.328Z,41.64
2018-07-14T17:35:47.992Z,42.32
2018-07-14T17:38:16.610Z,42.42
2018-07-14T17:40:46.285Z,42.87
2018-07-14T17:43:15.124Z,43.68
2018-07-14T17:45:43.869Z,44.23
2018-07-14T17:48:12.635Z,44.51
2018-07-14T17:50:41.386Z,44.16
2018-07-14T17:53:09.988Z,45.54
2018-07-14T17:55:38.657Z,45.41
2018-07-14T17:58:07.544Z,45.69
2018-07-14T18:00:36.350Z,46.44
2018-07-14T18:03:05.295Z,46.48
2018-07-14T18:05:34.004Z,47.21
2018-07-14T18:08:02.827Z,47.99
2018-07-14T18:10:31.636Z,48.82
2018-07-14T18:13:01.063Z,49.68
2018-07-14T18:15:29.845Z,50.83
2018-07-14T18:17:58.608Z,52.49
2018-07-14T18:20:27.379Z,53.14
2018-07-14T18:22:56.129Z,54.88
2018-07-14T18:25:25.659Z,55.86
2018-07-14T18:27:54.490Z,56.59
2018-07-14T18:30:23.850Z,56.36
2018-07-14T18:32:52.694Z,56.98
2018-07-14T18:35:21.473Z,57.92
2018-07-14T18:37:50.412Z,58.42
2018-07-14T18:40:19.774Z,58.62
2018-07-14T18:42:48.533Z,59.85
2018-07-14T18:45:17.311Z,60.31
2018-07-14T18:47:46.180Z,61.14
2018-07-14T18:50:14.845Z,61.56
2018-07-14T18:52:43.558Z,62.20
2018-07-14T18:55:12.341Z,62.66
2018-07-14T18:57:41.143Z,62.80
2018-07-14T19:00:09.995Z,62.80
2018-07-14T19:02:39.509Z,63.07
2018-07-14T19:05:08.156Z,64.30
2018-07-14T19:07:37.036Z,63.43
2018-07-14T19:10:05.879Z,63.97
2018-07-14T19:12:35.146Z,64.48
2018-07-14T19:15:03.921Z,64.76
2018-07-14T19:17:32.551Z,66.03
2018-07-14T19:20:01.557Z,66.05
2018-07-14T19:22:30.251Z,65.59
2018-07-14T19:24:59.047Z,66.37
2018-07-14T19:27:27.735Z,66.67
2018-07-14T19:29:56.556Z,67.57
2018-07-14T19:32:25.359Z,68.00
2018-07-14T19:34:54.804Z,68.55
2018-07-14T19:37:23.644Z,68.73
2018-07-14T19:39:52.356Z,68.47
2018-07-14T19:42:21.669Z,69.74
2018-07-14T19:48:20.787Z,71.60
2018-07-14T19:50:49.396Z,70.86
2018-07-14T19:53:18.185Z,71.55
2018-07-14T19:55:46.944Z,71.16
2018-07-14T19:58:15.505Z,71.49
2018-07-14T20:00:44.290Z,72.04
2018-07-14T20:03:12.928Z,72.25
2018-07-14T20:05:42.322Z,72.26
2018-07-14T20:08:11.104Z,72.75
2018-07-14T20:10:39.766Z,73.25
2018-07-14T20:13:08.963Z,73.87
2018-07-14T20:15:38.200Z,73.83
2018-07-14T20:18:07.376Z,73.85
2018-07-14T20:20:36.101Z,74.07
2018-07-14T20:23:04.987Z,74.92
2018-07-14T20:25:33.926Z,75.27
2018-07-14T20:28:02.655Z,75.92
2018-07-14T20:30:31.285Z,76.44
2018-07-14T20:32:59.876Z,76.47
2018-07-14T20:35:28.518Z,76.76
2018-07-14T20:37:57.182Z,76.73
2018-07-14T20:40:25.964Z,76.94
2018-07-14T20:42:54.624Z,77.05
2018-07-14T20:45:23.435Z,77.33
2018-07-14T20:47:52.224Z,77.62
2018-07-14T20:50:21.049Z,77.32
2018-07-14T20:52:49.614Z,78.99
2018-07-14T20:55:18.340Z,79.48
2018-07-14T20:57:46.965Z,79.35
2018-07-14T21:00:16.195Z,79.24
2018-07-14T21:02:44.836Z,79.22
2018-07-14T21:05:13.766Z,79.73
2018-07-14T21:07:42.479Z,79.90
2018-07-14T21:10:11.275Z,80.60
2018-07-14T21:12:40.092Z,80.53
2018-07-14T21:15:08.801Z,80.57
2018-07-14T21:17:38.326Z,80.65
2018-07-14T21:20:07.281Z,80.47
2018-07-14T21:22:36.337Z,80.52
2018-07-14T21:25:05.267Z,80.44
2018-07-14T21:27:34.134Z,80.61
2018-07-14T21:30:02.937Z,80.81
2018-07-14T21:32:32.170Z,80.54
2018-07-14T21:35:01.437Z,80.93
2018-07-14T21:37:30.204Z,80.89
2018-07-14T21:39:59.065Z,81.43
2018-07-14T21:42:28.177Z,81.50
2018-07-14T21:44:57.036Z,81.82
2018-07-14T21:47:25.819Z,81.51
2018-07-14T21:49:54.795Z,82.42
2018-07-14T21:52:23.506Z,82.74
2018-07-14T21:54:52.441Z,82.61
2018-07-14T21:57:21.240Z,82.64
2018-07-14T21:59:50.130Z,82.89
2018-07-14T22:02:18.852Z,83.26
2018-07-14T22:04:47.799Z,83.18
2018-07-14T22:07:16.521Z,83.12
2018-07-14T22:09:45.581Z,83.45
2018-07-14T22:12:14.528Z,83.63
2018-07-14T22:14:44.037Z,83.40
2018-07-14T22:17:12.621Z,83.43
2018-07-14T22:19:41.326Z,83.18
2018-07-14T22:22:10.095Z,83.08
2018-07-14T22:24:39.057Z,84.71
2018-07-14T22:27:08.198Z,84.51
2018-07-14T22:29:37.091Z,85.00
2018-07-14T22:32:06.245Z,84.99
2018-07-14T22:34:35.006Z,84.99
2018-07-14T22:37:03.785Z,85.22
2018-07-14T22:39:32.467Z,85.51
2018-07-14T22:42:01.910Z,85.62
2018-07-14T22:44:30.477Z,86.07
2018-07-14T22:46:59.075Z,85.91
2018-07-14T22:49:27.825Z,85.70
2018-07-14T22:51:56.456Z,86.19
2018-07-14T22:54:25.087Z,86.44
2018-07-14T22:56:54.023Z,86.69
2018-07-14T22:59:22.709Z,86.38
2018-07-14T23:01:51.407Z,87.08
2018-07-14T23:04:20.106Z,86.85
2018-07-14T23:06:48.925Z,86.52
2018-07-14T23:09:17.811Z,86.72
2018-07-14T23:11:46.560Z,87.20
2018-07-14T23:14:15.189Z,86.62
2018-07-14T23:16:43.887Z,86.81
2018-07-14T23:19:12.584Z,86.94
2018-07-14T23:21:41.470Z,87.61
2018-07-14T23:24:10.157Z,87.67
2018-07-14T23:26:38.771Z,87.42
2018-07-14T23:29:07.931Z,87.95
2018-07-14T23:31:36.841Z,88.30
2018-07-14T23:34:05.667Z,88.21
2018-07-14T23:36:34.377Z,88.36
2018-07-14T23:39:03.355Z,88.25
2018-07-14T23:41:32.142Z,88.50
2018-07-14T23:44:00.912Z,88.58
2018-07-14T23:46:29.635Z,88.55
2018-07-14T23:48:58.210Z,88.73
2018-07-14T23:51:26.785Z,88.75
2018-07-14T23:53:55.377Z,88.57
2018-07-14T23:56:24.199Z,88.85
2018-07-14T23:58:53.466Z,89.36
